Time;durP1;ratioP1;P1;durP2;ratioP2;P2;SDS_P1;SDS_P2;PMS_P1;PMS_P2;Temp;Humidity;BMP_temperature;BMP_pressure;BME280_temperature;BME280_humidity;BME280_pressure;Samples;Min_cycle;Max_cycle;Signal;HPM_P1;HPM_P2
2022/05/21 00:02:22;;;;;;;3.63;1.50;;;18.20;99.90;;;;;;5071721;28;20194;-69
2022/05/21 00:04:49;;;;;;;6.27;1.87;;;18.50;99.90;;;;;;5072933;28;20206;-69
2022/05/21 00:07:17;;;;;;;6.17;1.30;;;18.70;99.90;;;;;;5071763;28;20179;-69
2022/05/21 00:09:44;;;;;;;10.43;2.13;;;18.80;99.90;;;;;;5072787;28;20709;-69
2022/05/21 00:12:11;;;;;;;4.50;1.33;;;19.00;99.90;;;;;;5072967;28;20604;-69
2022/05/21 00:14:39;;;;;;;5.97;1.70;;;19.00;99.90;;;;;;5072889;28;20175;-69
2022/05/21 00:17:07;;;;;;;5.67;1.40;;;19.80;99.90;;;;;;5072718;28;20231;-69
2022/05/21 00:19:34;;;;;;;5.70;1.23;;;20.10;99.90;;;;;;5072991;28;20183;-67
2022/05/21 00:22:02;;;;;;;7.13;1.33;;;19.40;99.90;;;;;;5073021;28;20265;-69
2022/05/21 00:24:29;;;;;;;4.97;1.40;;;19.30;99.90;;;;;;5072742;28;20245;-68
2022/05/21 00:26:56;;;;;;;8.20;1.70;;;19.40;99.90;;;;;;5072774;28;20263;-68
2022/05/21 00:29:26;;;;;;;7.17;1.60;;;19.30;99.90;;;;;;5072863;28;20193;-68
2022/05/21 00:31:54;;;;;;;4.40;1.60;;;19.20;99.90;;;;;;5072897;28;20641;-68
2022/05/21 00:34:21;;;;;;;9.80;1.70;;;19.70;99.90;;;;;;5072883;28;20233;-68
2022/05/21 00:36:49;;;;;;;6.30;1.50;;;20.00;99.90;;;;;;5072458;28;20211;-68
2022/05/21 00:39:16;;;;;;;6.40;1.73;;;20.20;99.90;;;;;;5071438;28;20293;-68
2022/05/21 00:41:44;;;;;;;9.40;1.83;;;20.30;99.90;;;;;;5072651;28;20262;-68
2022/05/21 00:44:12;;;;;;;6.73;1.30;;;20.30;99.90;;;;;;5072770;28;20237;-68
2022/05/21 00:46:42;;;;;;;5.30;1.50;;;20.40;99.90;;;;;;5072937;28;20582;-68
2022/05/21 00:49:19;;;;;;;6.70;1.63;;;20.40;99.90;;;;;;5072759;28;20549;-68
2022/05/21 00:51:53;;;;;;;7.63;1.57;;;20.10;99.90;;;;;;5072810;28;20183;-68
2022/05/21 00:54:25;;;;;;;3.90;1.60;;;19.80;99.90;;;;;;5072749;28;20190;-68
2022/05/21 00:57:04;;;;;;;9.40;1.70;;;20.40;99.90;;;;;;5072468;28;20685;-68
2022/05/21 00:59:51;;;;;;;5.77;1.53;;;20.60;99.90;;;;;;5071223;28;20179;-68
2022/05/21 01:02:36;;;;;;;8.73;2.07;;;20.60;99.90;;;;;;5072875;28;20178;-68
2022/05/21 01:05:07;;;;;;;7.57;1.50;;;21.30;99.90;;;;;;5076466;28;20194;-68
2022/05/21 01:07:42;;;;;;;9.83;1.20;;;20.60;99.90;;;;;;5075058;28;20187;-68
2022/05/21 01:10:10;;;;;;;4.90;1.03;;;20.00;99.90;;;;;;5076253;28;20174;-68
2022/05/21 01:12:40;;;;;;;4.13;1.23;;;19.40;99.90;;;;;;5076136;28;20179;-68
2022/05/21 01:15:12;;;;;;;6.53;1.40;;;18.70;99.90;;;;;;5074845;28;20233;-66
2022/05/21 01:17:39;;;;;;;9.37;1.53;;;18.40;99.90;;;;;;5065962;28;20586;-70
2022/05/21 01:20:11;;;;;;;6.10;1.40;;;18.20;99.90;;;;;;5075107;28;20180;-68
2022/05/21 01:22:45;;;;;;;6.57;1.20;;;17.90;99.90;;;;;;5074105;28;20530;-67
2022/05/21 01:25:15;;;;;;;7.00;1.43;;;17.60;99.90;;;;;;5073467;28;20671;-68
2022/05/21 01:27:43;;;;;;;7.77;1.60;;;17.40;99.90;;;;;;5073078;28;20178;-67
2022/05/21 01:30:14;;;;;;;10.27;1.53;;;17.50;99.90;;;;;;5073534;28;20168;-67
2022/05/21 01:32:44;;;;;;;9.30;1.70;;;17.50;99.90;;;;;;5073859;28;20234;-68
2022/05/21 01:35:11;;;;;;;7.10;2.00;;;17.40;99.90;;;;;;5072790;28;20187;-67
2022/05/21 01:37:41;;;;;;;4.90;1.50;;;17.50;99.90;;;;;;5075004;28;20632;-68
2022/05/21 01:40:10;;;;;;;4.63;1.33;;;17.40;99.90;;;;;;5075512;28;20225;-68
2022/05/21 01:42:38;;;;;;;11.73;1.90;;;17.40;99.90;;;;;;5075662;28;20679;-68
2022/05/21 01:45:06;;;;;;;9.73;1.70;;;17.50;99.90;;;;;;5075569;28;20204;-68
2022/05/21 01:47:41;;;;;;;8.23;2.00;;;17.60;99.90;;;;;;5075423;28;20178;-67
2022/05/21 01:50:09;;;;;;;11.23;2.07;;;17.70;99.90;;;;;;5075501;28;20188;-68
2022/05/21 01:52:37;;;;;;;7.73;1.60;;;17.70;99.90;;;;;;5075406;28;20171;-67
2022/05/21 01:55:05;;;;;;;6.47;1.50;;;17.90;99.90;;;;;;5075513;28;20199;-68
2022/05/21 01:57:32;;;;;;;9.33;1.77;;;17.80;99.90;;;;;;5075192;28;20250;-67
2022/05/21 01:59:59;;;;;;;8.00;1.83;;;17.90;99.90;;;;;;5075475;28;20192;-67
2022/05/21 02:02:27;;;;;;;4.67;1.47;;;18.10;99.90;;;;;;5073989;28;20202;-67
2022/05/21 02:04:54;;;;;;;3.93;1.60;;;18.20;99.90;;;;;;5075286;28;20176;-67
2022/05/21 02:07:21;;;;;;;6.90;1.87;;;18.20;99.90;;;;;;5074916;28;20204;-67
2022/05/21 02:09:49;;;;;;;8.13;1.53;;;18.10;99.90;;;;;;5075033;28;20252;-67
2022/05/21 02:12:16;;;;;;;5.37;1.37;;;18.20;99.90;;;;;;5075008;28;20166;-68
2022/05/21 02:14:44;;;;;;;4.57;1.50;;;18.30;99.90;;;;;;5074827;28;20180;-68
2022/05/21 02:17:12;;;;;;;2.67;1.20;;;18.30;99.90;;;;;;5074501;28;20232;-68
2022/05/21 02:19:39;;;;;;;8.30;1.47;;;18.30;99.90;;;;;;5074911;28;20506;-68
2022/05/21 02:22:06;;;;;;;3.73;1.77;;;18.30;99.90;;;;;;5074849;28;20722;-68
2022/05/21 02:24:34;;;;;;;6.50;0.93;;;18.30;99.90;;;;;;5074773;28;20172;-67
2022/05/21 02:27:01;;;;;;;4.57;1.37;;;18.20;99.90;;;;;;5074577;28;20183;-67
2022/05/21 02:29:28;;;;;;;6.77;1.40;;;17.90;99.90;;;;;;5074902;28;20172;-67
2022/05/21 02:31:55;;;;;;;3.27;1.30;;;17.70;99.90;;;;;;5074629;28;20200;-68
2022/05/21 02:34:23;;;;;;;4.20;1.20;;;17.70;99.90;;;;;;5072917;28;20634;-67
2022/05/21 02:39:35;;;;;;;3.13;1.00;;;17.80;99.90;;;;;;5072926;28;20683;-68
2022/05/21 02:42:03;;;;;;;7.53;1.33;;;17.90;99.90;;;;;;5073164;28;20176;-68
2022/05/21 02:44:31;;;;;;;4.67;0.90;;;17.90;99.90;;;;;;5074318;28;20180;-68
2022/05/21 02:46:58;;;;;;;7.77;1.57;;;17.90;99.90;;;;;;5074129;28;20172;-68
2022/05/21 02:49:26;;;;;;;6.97;1.43;;;17.90;99.90;;;;;;5073702;28;20173;-68
2022/05/21 02:51:53;;;;;;;4.77;1.10;;;17.90;99.90;;;;;;5073052;28;20183;-68
2022/05/21 02:54:20;;;;;;;2.90;1.00;;;17.80;99.90;;;;;;5073088;28;21003;-68
2022/05/21 02:56:51;;;;;;;7.23;1.40;;;17.80;99.90;;;;;;5073319;28;20211;-70
2022/05/21 02:59:19;;;;;;;5.30;1.17;;;17.90;99.90;;;;;;5073917;28;20207;-70
2022/05/21 03:01:46;;;;;;;4.10;1.10;;;17.90;99.90;;;;;;5074105;28;20180;-70
2022/05/21 03:04:14;;;;;;;4.70;1.30;;;17.90;99.90;;;;;;5073866;28;20180;-69
2022/05/21 03:06:41;;;;;;;5.63;1.70;;;17.80;99.90;;;;;;5073845;28;20182;-69
2022/05/21 03:11:54;;;;;;;6.80;1.30;;;17.90;99.90;;;;;;5074095;28;20186;-68
2022/05/21 03:14:22;;;;;;;6.13;1.20;;;17.80;99.90;;;;;;5073767;28;20172;-69
2022/05/21 03:16:49;;;;;;;6.87;1.60;;;17.80;99.90;;;;;;5072923;28;20235;-69
2022/05/21 03:19:16;;;;;;;9.00;1.40;;;17.80;99.90;;;;;;5073188;28;20172;-69
2022/05/21 03:21:44;;;;;;;4.97;1.23;;;17.80;99.90;;;;;;5073278;28;20174;-69
2022/05/21 03:24:11;;;;;;;10.20;1.60;;;17.80;99.90;;;;;;5073341;28;20180;-69
2022/05/21 03:26:38;;;;;;;5.83;1.50;;;17.90;99.90;;;;;;5073083;28;20266;-69
2022/05/21 03:29:05;;;;;;;8.50;1.43;;;17.90;99.90;;;;;;5071277;28;20662;-68
2022/05/21 03:31:33;;;;;;;8.50;1.83;;;18.00;99.90;;;;;;5072858;28;20202;-68
2022/05/21 03:34:00;;;;;;;7.50;1.57;;;18.00;99.90;;;;;;5071011;28;20179;-69
2022/05/21 03:36:27;;;;;;;8.80;1.63;;;18.00;99.90;;;;;;5071108;28;20211;-69
2022/05/21 03:38:55;;;;;;;8.10;3.53;;;18.10;99.90;;;;;;5069612;28;20177;-69
2022/05/21 03:41:24;;;;;;;11.27;2.23;;;18.20;99.90;;;;;;5070891;28;20183;-68
2022/05/21 03:43:52;;;;;;;11.47;3.20;;;18.20;99.90;;;;;;5065945;28;20184;-68
2022/05/21 03:46:19;;;;;;;7.20;2.40;;;18.20;99.90;;;;;;5071203;28;20189;-69
2022/05/21 03:48:47;;;;;;;6.97;1.30;;;18.20;99.90;;;;;;5071160;28;20259;-69
2022/05/21 03:51:15;;;;;;;6.37;1.40;;;18.20;99.90;;;;;;5072952;28;20199;-68
2022/05/21 03:53:42;;;;;;;8.27;1.53;;;18.20;99.90;;;;;;5072725;28;20176;-68
2022/05/21 03:56:10;;;;;;;5.80;1.33;;;18.30;99.90;;;;;;5076824;28;20644;-68
2022/05/21 03:58:38;;;;;;;3.37;1.10;;;18.20;99.90;;;;;;5073359;28;20175;-68
2022/05/21 04:01:05;;;;;;;7.10;2.10;;;18.20;99.90;;;;;;5073182;28;20180;-68
2022/05/21 04:03:34;;;;;;;4.57;1.20;;;18.30;99.90;;;;;;5072910;28;20180;-67
2022/05/21 04:06:01;;;;;;;6.57;1.30;;;18.30;99.90;;;;;;5073101;28;20241;-67
2022/05/21 04:08:29;;;;;;;8.47;1.50;;;18.30;99.90;;;;;;5072994;28;20271;-67
2022/05/21 04:10:56;;;;;;;5.33;1.70;;;18.30;99.90;;;;;;5072399;28;20179;-67
2022/05/21 04:13:23;;;;;;;5.13;1.17;;;18.20;99.90;;;;;;5072249;28;20184;-67
2022/05/21 04:15:50;;;;;;;5.50;1.77;;;18.10;99.90;;;;;;5072684;28;20232;-67
2022/05/21 04:18:19;;;;;;;7.83;2.77;;;18.10;99.90;;;;;;5073050;28;20175;-67
2022/05/21 04:20:47;;;;;;;10.33;1.97;;;18.00;99.90;;;;;;5072563;28;20177;-67
2022/05/21 04:23:14;;;;;;;8.73;2.47;;;18.00;99.90;;;;;;5072831;28;20278;-67
2022/05/21 04:25:42;;;;;;;7.53;1.60;;;18.00;99.90;;;;;;5072559;28;20561;-67
2022/05/21 04:28:11;;;;;;;8.23;1.70;;;18.00;99.90;;;;;;5072690;28;20192;-67
2022/05/21 04:30:39;;;;;;;12.30;1.73;;;18.10;99.90;;;;;;5071247;28;20199;-67
2022/05/21 04:33:06;;;;;;;8.77;1.43;;;18.10;99.90;;;;;;5072953;28;20197;-67
2022/05/21 04:38:19;;;;;;;5.03;1.10;;;18.00;99.90;;;;;;5074940;28;20673;-67
2022/05/21 04:40:47;;;;;;;3.53;1.27;;;18.10;99.90;;;;;;5076323;28;20646;-67
2022/05/21 04:43:14;;;;;;;4.53;1.13;;;18.10;99.90;;;;;;5077094;28;20606;-68
2022/05/21 04:45:42;;;;;;;6.83;1.20;;;18.20;99.90;;;;;;5076755;28;20195;-67
2022/05/21 04:48:10;;;;;;;4.30;1.60;;;18.30;99.90;;;;;;5076816;28;20191;-67
2022/05/21 04:50:38;;;;;;;6.13;1.30;;;18.30;99.90;;;;;;5076566;28;20650;-68
2022/05/21 04:53:06;;;;;;;6.23;1.20;;;18.40;99.90;;;;;;5076569;28;20173;-68
2022/05/21 04:55:34;;;;;;;6.77;1.37;;;18.30;99.90;;;;;;5075987;28;20176;-67
2022/05/21 04:58:01;;;;;;;7.87;2.03;;;18.20;99.90;;;;;;5074518;28;20176;-67
2022/05/21 05:00:29;;;;;;;8.17;1.37;;;18.10;99.90;;;;;;5074113;28;20203;-67
2022/05/21 05:02:56;;;;;;;5.33;1.60;;;17.90;99.90;;;;;;5074416;28;20188;-67
2022/05/21 05:05:23;;;;;;;14.03;1.67;;;17.80;99.90;;;;;;5072954;28;20754;-68
2022/05/21 05:07:51;;;;;;;4.13;1.40;;;17.70;99.90;;;;;;5074537;28;20199;-67
2022/05/21 05:10:18;;;;;;;5.00;1.50;;;17.70;99.90;;;;;;5074338;28;20679;-67
2022/05/21 05:12:46;;;;;;;4.77;1.00;;;17.60;99.90;;;;;;5074536;28;20641;-67
2022/05/21 05:15:13;;;;;;;4.77;1.50;;;17.50;99.90;;;;;;5076177;28;20222;-67
2022/05/21 05:17:41;;;;;;;4.60;1.00;;;17.50;99.90;;;;;;5076104;28;20625;-67
2022/05/21 05:20:08;;;;;;;2.90;1.00;;;17.50;99.90;;;;;;5075564;28;20250;-67
2022/05/21 05:22:36;;;;;;;4.83;0.90;;;17.40;99.90;;;;;;5075992;28;20176;-67
2022/05/21 05:25:04;;;;;;;5.73;1.40;;;17.30;99.90;;;;;;5075422;28;20175;-67
2022/05/21 05:27:32;;;;;;;6.97;1.50;;;17.40;99.90;;;;;;5075136;28;20180;-67
2022/05/21 05:30:03;;;;;;;7.93;1.37;;;17.20;99.90;;;;;;5075670;28;20180;-67
2022/05/21 05:32:30;;;;;;;3.33;1.27;;;16.80;99.90;;;;;;5075239;28;20180;-67
2022/05/21 05:34:58;;;;;;;3.23;1.10;;;16.50;99.90;;;;;;5072370;28;20210;-66
2022/05/21 05:37:25;;;;;;;3.43;0.93;;;16.10;99.90;;;;;;5073839;28;20288;-67
2022/05/21 05:39:59;;;;;;;5.10;0.70;;;16.00;99.90;;;;;;5074566;28;20211;-67
2022/05/21 05:42:26;;;;;;;4.73;0.73;;;15.80;99.90;;;;;;5074992;28;20179;-67
2022/05/21 05:44:55;;;;;;;3.67;0.80;;;15.60;99.90;;;;;;5074458;28;20184;-67
2022/05/21 05:47:22;;;;;;;4.23;0.90;;;15.50;99.90;;;;;;5074274;28;20179;-67
2022/05/21 05:49:49;;;;;;;2.50;0.97;;;15.50;99.90;;;;;;5074048;28;20171;-66
2022/05/21 05:52:17;;;;;;;4.07;1.10;;;15.50;99.90;;;;;;5072980;28;20645;-66
2022/05/21 05:54:44;;;;;;;1.60;0.93;;;15.60;99.90;;;;;;5074304;28;20229;-66
2022/05/21 05:57:12;;;;;;;3.53;1.50;;;15.60;99.90;;;;;;5074051;28;20206;-66
2022/05/21 05:59:49;;;;;;;3.73;1.00;;;15.60;99.90;;;;;;5074101;28;20168;-67
2022/05/21 06:05:05;;;;;;;4.20;1.50;;;15.70;99.90;;;;;;5074460;28;20283;-66
2022/05/21 06:07:33;;;;;;;4.63;1.30;;;15.70;99.90;;;;;;5074051;28;20202;-67
2022/05/21 06:10:10;;;;;;;4.00;1.33;;;15.70;99.90;;;;;;5073983;28;20175;-67
2022/05/21 06:12:37;;;;;;;3.57;1.23;;;15.70;99.90;;;;;;5074008;28;20242;-66
2022/05/21 06:15:06;;;;;;;5.20;1.63;;;15.70;99.90;;;;;;5073869;28;20183;-66
2022/05/21 06:17:33;;;;;;;4.73;1.60;;;15.70;99.90;;;;;;5073599;28;20278;-67
2022/05/21 06:20:00;;;;;;;3.17;1.10;;;15.70;99.90;;;;;;5072485;28;20532;-67
2022/05/21 06:22:28;;;;;;;4.70;1.03;;;15.70;99.90;;;;;;5073418;28;20180;-67
2022/05/21 06:24:55;;;;;;;4.03;1.30;;;15.80;99.90;;;;;;5073505;28;20188;-67
2022/05/21 06:27:23;;;;;;;8.93;1.33;;;15.70;99.90;;;;;;5073471;28;20176;-67
2022/05/21 06:29:50;;;;;;;7.47;2.00;;;15.70;99.90;;;;;;5073367;28;20275;-68
2022/05/21 06:32:18;;;;;;;5.60;1.87;;;15.70;99.90;;;;;;5073253;28;20205;-67
2022/05/21 06:34:45;;;;;;;6.67;1.93;;;15.70;99.90;;;;;;5073224;28;20180;-67
2022/05/21 06:37:13;;;;;;;7.23;1.77;;;15.70;99.90;;;;;;5073154;28;20547;-67
2022/05/21 06:39:44;;;;;;;6.67;1.97;;;15.70;99.90;;;;;;5073295;28;20172;-66
2022/05/21 06:42:13;;;;;;;6.77;2.50;;;15.70;99.90;;;;;;5073244;28;20333;-67
2022/05/21 06:44:42;;;;;;;4.87;2.20;;;15.70;99.90;;;;;;5072999;28;20270;-67
2022/05/21 06:47:10;;;;;;;10.10;2.83;;;15.60;99.90;;;;;;5072510;28;20249;-67
2022/05/21 06:49:37;;;;;;;9.80;2.50;;;15.60;99.90;;;;;;5073281;28;20660;-68
2022/05/21 06:52:05;;;;;;;8.93;2.83;;;15.60;99.90;;;;;;5072827;28;20176;-68
2022/05/21 06:54:33;;;;;;;8.50;2.87;;;15.50;99.90;;;;;;5072293;28;20180;-68
2022/05/21 06:57:00;;;;;;;11.13;2.87;;;15.50;99.90;;;;;;5072426;28;20211;-68
2022/05/21 06:59:28;;;;;;;7.43;2.20;;;15.40;99.90;;;;;;5072651;28;20202;-68
2022/05/21 07:01:55;;;;;;;11.17;2.53;;;15.40;99.90;;;;;;5072151;28;20234;-68
2022/05/21 07:07:32;;;;;;;6.37;2.57;;;15.40;99.90;;;;;;5072115;28;20207;-69
2022/05/21 07:10:00;;;;;;;10.00;2.83;;;15.40;99.90;;;;;;5072760;28;20195;-67
2022/05/21 07:12:28;;;;;;;12.07;2.80;;;15.40;99.90;;;;;;5071182;28;20538;-67
2022/05/21 07:14:55;;;;;;;9.67;2.60;;;15.30;99.90;;;;;;5072275;28;20176;-68
2022/05/21 07:17:23;;;;;;;8.57;2.63;;;15.40;99.90;;;;;;5072109;28;20266;-68
2022/05/21 07:19:50;;;;;;;7.87;3.20;;;15.40;99.90;;;;;;5072729;28;20237;-68
2022/05/21 07:22:18;;;;;;;9.43;2.90;;;15.30;99.90;;;;;;5072202;28;20253;-67
2022/05/21 07:24:45;;;;;;;13.77;3.87;;;15.30;99.90;;;;;;5071951;28;20264;-67
2022/05/21 07:27:13;;;;;;;7.03;2.70;;;15.20;99.90;;;;;;5071061;28;20233;-67
2022/05/21 07:29:41;;;;;;;7.53;3.17;;;15.10;99.90;;;;;;5072344;28;20234;-68
2022/05/21 07:32:17;;;;;;;9.43;3.33;;;15.10;99.90;;;;;;5071828;28;20199;-67
2022/05/21 07:34:45;;;;;;;10.03;3.40;;;15.10;99.90;;;;;;5066027;28;20180;-67
2022/05/21 07:37:13;;;;;;;5.93;2.80;;;15.10;99.90;;;;;;5071793;28;20219;-66
2022/05/21 07:39:41;;;;;;;12.47;3.73;;;15.00;99.90;;;;;;5072269;28;20695;-67
2022/05/21 07:42:08;;;;;;;10.23;3.40;;;15.00;99.90;;;;;;5072024;28;20176;-67
2022/05/21 07:44:36;;;;;;;6.93;3.07;;;15.00;99.90;;;;;;5071770;28;20196;-67
2022/05/21 07:47:03;;;;;;;7.50;3.60;;;14.90;99.90;;;;;;5071884;28;20229;-67
2022/05/21 07:49:31;;;;;;;9.50;4.27;;;14.90;99.90;;;;;;5071903;28;20205;-67
2022/05/21 07:51:59;;;;;;;9.90;3.80;;;14.90;99.90;;;;;;5071989;28;20233;-67
2022/05/21 07:54:28;;;;;;;8.33;4.20;;;14.90;99.90;;;;;;5071205;28;20187;-68
2022/05/21 07:56:55;;;;;;;8.40;4.27;;;14.80;99.90;;;;;;5066786;28;20223;-69
2022/05/21 07:59:23;;;;;;;9.77;3.97;;;14.80;99.90;;;;;;5072464;28;20255;-67
2022/05/21 08:01:50;;;;;;;7.97;3.83;;;14.80;99.90;;;;;;5072727;28;20544;-69
2022/05/21 08:04:17;;;;;;;10.90;3.83;;;14.80;99.90;;;;;;5071482;28;20218;-68
2022/05/21 08:06:45;;;;;;;13.43;4.47;;;14.90;99.90;;;;;;5070901;28;20180;-68
2022/05/21 08:09:12;;;;;;;8.67;3.17;;;14.80;99.90;;;;;;5071204;28;20211;-68
2022/05/21 08:11:39;;;;;;;9.30;3.63;;;14.80;99.90;;;;;;5071063;28;20263;-68
2022/05/21 08:14:08;;;;;;;6.13;3.33;;;14.80;99.90;;;;;;5071120;28;20637;-67
2022/05/21 08:16:36;;;;;;;8.13;3.53;;;14.70;99.90;;;;;;5070575;28;20242;-68
2022/05/21 08:19:04;;;;;;;7.17;3.17;;;14.70;99.90;;;;;;5072264;28;20175;-68
2022/05/21 08:21:32;;;;;;;10.30;3.93;;;14.70;99.90;;;;;;5073153;28;20172;-68
2022/05/21 08:26:56;;;;;;;4.80;2.53;;;14.60;99.90;;;;;;5073161;28;20232;-68
2022/05/21 08:29:32;;;;;;;5.37;2.40;;;14.60;99.90;;;;;;5072999;28;20168;-68
2022/05/21 08:32:01;;;;;;;5.87;3.00;;;14.60;99.90;;;;;;5072957;28;20175;-68
2022/05/21 08:34:29;;;;;;;4.33;2.60;;;14.60;99.90;;;;;;5072902;28;20172;-68
2022/05/21 08:36:57;;;;;;;8.07;3.13;;;14.50;99.90;;;;;;5072737;28;20206;-68
2022/05/21 08:39:24;;;;;;;6.53;3.00;;;14.50;99.90;;;;;;5072992;28;20176;-69
2022/05/21 08:41:58;;;;;;;7.53;2.43;;;14.50;99.90;;;;;;5072962;28;20176;-68
2022/05/21 08:44:49;;;;;;;8.17;3.47;;;14.50;99.90;;;;;;5073014;28;20176;-68
2022/05/21 08:47:29;;;;;;;8.37;5.03;;;14.50;99.90;;;;;;5073008;28;20186;-69
2022/05/21 08:50:05;;;;;;;5.53;2.93;;;14.50;99.90;;;;;;5072947;28;20225;-68
2022/05/21 08:52:59;;;;;;;10.13;2.90;;;14.50;99.90;;;;;;5072973;28;20180;-69
2022/05/21 08:55:38;;;;;;;7.40;2.80;;;14.50;99.90;;;;;;5071637;28;20188;-68
2022/05/21 08:58:16;;;;;;;5.37;2.23;;;14.50;99.90;;;;;;5072857;28;20187;-68
2022/05/21 09:00:47;;;;;;;5.87;2.47;;;14.50;99.90;;;;;;5072776;28;20171;-68
2022/05/21 09:03:21;;;;;;;6.10;2.10;;;14.50;99.90;;;;;;5072685;28;20187;-68
2022/05/21 09:06:07;;;;;;;4.40;2.23;;;14.50;99.90;;;;;;5072551;28;20182;-68
2022/05/21 09:09:21;;;;;;;4.87;2.40;;;14.50;99.90;;;;;;5072737;28;20199;-68
2022/05/21 09:12:05;;;;;;;4.53;2.63;;;14.50;99.90;;;;;;5056417;28;20180;-68
2022/05/21 09:14:43;;;;;;;8.00;2.80;;;14.40;99.90;;;;;;5072565;28;20176;-69
2022/05/21 09:17:17;;;;;;;4.23;2.93;;;14.50;99.90;;;;;;5072321;28;20660;-68
2022/05/21 09:19:49;;;;;;;9.77;2.83;;;14.50;99.90;;;;;;5072610;28;20229;-68
2022/05/21 09:22:19;;;;;;;8.83;3.07;;;14.50;99.90;;;;;;5072445;28;20175;-68
2022/05/21 09:24:49;;;;;;;11.40;3.53;;;14.50;99.90;;;;;;5074936;28;20736;-68
2022/05/21 09:27:35;;;;;;;6.00;3.37;;;14.50;99.90;;;;;;5076083;28;20255;-68
2022/05/21 09:30:30;;;;;;;5.37;2.90;;;14.50;99.90;;;;;;5076429;28;20668;-68
2022/05/21 09:33:00;;;;;;;6.50;2.40;;;14.50;99.90;;;;;;5075200;28;20191;-69
2022/05/21 09:35:52;;;;;;;4.07;2.77;;;14.50;99.90;;;;;;5075768;28;20199;-69
2022/05/21 09:38:26;;;;;;;10.47;3.27;;;14.60;99.90;;;;;;5076221;28;20237;-67
2022/05/21 09:41:16;;;;;;;6.80;3.20;;;14.60;99.90;;;;;;5076541;28;20578;-67
2022/05/21 09:47:16;;;;;;;7.17;3.37;;;14.60;99.90;;;;;;5083977;28;20178;-68
2022/05/21 09:49:58;;;;;;;8.47;2.17;;;14.60;99.90;;;;;;5089769;28;20188;-69
2022/05/21 09:52:29;;;;;;;5.77;3.27;;;14.60;99.90;;;;;;5075883;28;20183;-68
2022/05/21 09:54:57;;;;;;;5.67;2.60;;;14.60;99.90;;;;;;5075541;28;20222;-68
2022/05/21 09:57:45;;;;;;;5.03;2.60;;;14.60;99.90;;;;;;5074595;28;20317;-68
2022/05/21 10:00:35;;;;;;;7.03;2.60;;;14.50;99.90;;;;;;5075472;28;20180;-67
2022/05/21 10:03:06;;;;;;;6.37;2.20;;;14.50;99.90;;;;;;5075624;28;20176;-68
2022/05/21 10:05:53;;;;;;;7.63;3.00;;;14.50;99.90;;;;;;5075164;28;20528;-68
2022/05/21 10:11:30;;;;;;;4.83;3.10;;;14.50;99.90;;;;;;5075008;28;20686;-68
2022/05/21 10:14:28;;;;;;;13.60;5.87;;;14.50;99.90;;;;;;5075355;28;20200;-68
2022/05/21 10:16:58;;;;;;;11.73;5.07;;;14.50;99.90;;;;;;5062528;28;20254;-68
2022/05/21 10:19:25;;;;;;;9.57;4.60;;;14.50;99.90;;;;;;5074983;28;20191;-67
2022/05/21 10:22:02;;;;;;;6.50;4.00;;;14.50;99.90;;;;;;5075147;28;20263;-68
2022/05/21 10:25:11;;;;;;;3.60;2.67;;;14.50;99.90;;;;;;5074980;28;20264;-68
2022/05/21 10:27:47;;;;;;;5.47;2.90;;;14.60;99.90;;;;;;5068063;28;20311;-68
2022/05/21 10:30:18;;;;;;;5.37;2.93;;;14.60;99.90;;;;;;5075051;28;20255;-68
2022/05/21 10:32:56;;;;;;;8.00;3.40;;;14.60;99.90;;;;;;5074603;28;20211;-67
2022/05/21 10:36:07;;;;;;;3.57;2.53;;;14.50;99.90;;;;;;5072440;28;20188;-67
2022/05/21 10:38:44;;;;;;;6.20;3.20;;;14.50;99.90;;;;;;5073775;28;20195;-67
2022/05/21 10:41:42;;;;;;;5.77;3.10;;;14.50;99.90;;;;;;5072861;28;20176;-67
2022/05/21 10:44:16;;;;;;;6.43;2.87;;;14.50;99.90;;;;;;5067282;28;20286;-68
2022/05/21 10:47:04;;;;;;;8.07;2.90;;;14.40;99.90;;;;;;5074633;28;20171;-68
2022/05/21 10:49:57;;;;;;;5.33;2.60;;;14.40;99.90;;;;;;5074446;28;20172;-68
2022/05/21 10:53:00;;;;;;;6.70;2.30;;;14.30;99.90;;;;;;5074726;28;20179;-68
2022/05/21 10:56:14;;;;;;;3.23;2.30;;;14.30;99.90;;;;;;5074113;28;20550;-68
2022/05/21 10:59:32;;;;;;;4.47;2.20;;;14.30;99.90;;;;;;5074235;28;20187;-67
2022/05/21 11:02:15;;;;;;;4.57;2.27;;;14.40;99.90;;;;;;5064656;28;20284;-68
2022/05/21 11:05:09;;;;;;;4.73;2.33;;;14.30;99.90;;;;;;5074044;28;20172;-68
2022/05/21 11:07:45;;;;;;;5.40;2.50;;;14.30;99.90;;;;;;5073886;28;20690;-68
2022/05/21 11:10:40;;;;;;;5.70;2.30;;;14.30;99.90;;;;;;5074108;28;20646;-69
2022/05/21 11:13:55;;;;;;;5.57;2.57;;;14.40;99.90;;;;;;5070670;28;20223;-68
2022/05/21 11:16:31;;;;;;;6.60;2.20;;;14.40;99.90;;;;;;5068723;28;20665;-68
2022/05/21 11:19:14;;;;;;;4.87;1.93;;;14.40;99.90;;;;;;5074211;28;20259;-68
2022/05/21 11:22:02;;;;;;;3.67;2.20;;;14.40;99.90;;;;;;5074105;28;20552;-68
2022/05/21 11:25:19;;;;;;;4.67;2.23;;;14.40;99.90;;;;;;5072796;28;20176;-68
2022/05/21 11:28:16;;;;;;;4.50;1.97;;;14.40;99.90;;;;;;5031920;28;20717;-68
2022/05/21 11:30:44;;;;;;;4.30;1.60;;;14.40;99.90;;;;;;5051721;28;20189;-67
2022/05/21 11:39:20;;;;;;;5.17;2.00;;;14.30;99.90;;;;;;5053748;28;20268;-67
2022/05/21 11:42:09;;;;;;;2.57;1.60;;;14.40;99.90;;;;;;5064811;28;20212;-68
2022/05/21 11:44:56;;;;;;;4.50;1.73;;;14.30;99.90;;;;;;5071996;28;20187;-67
2022/05/21 11:47:33;;;;;;;4.90;2.03;;;14.30;99.90;;;;;;5073463;28;20184;-68
2022/05/21 11:50:11;;;;;;;5.43;1.70;;;14.30;99.90;;;;;;5072064;28;20189;-68
2022/05/21 11:52:39;;;;;;;5.30;1.80;;;14.30;99.90;;;;;;5073291;28;20183;-67
2022/05/21 11:55:10;;;;;;;4.43;1.67;;;14.30;99.90;;;;;;5073190;28;20191;-68
2022/05/21 11:57:49;;;;;;;6.67;2.17;;;14.20;99.90;;;;;;5073091;28;20290;-68
2022/05/21 12:00:26;;;;;;;5.90;1.60;;;14.30;99.90;;;;;;5072968;28;20176;-69
2022/05/21 12:02:56;;;;;;;3.87;1.70;;;14.30;99.90;;;;;;5073434;28;20259;-68
2022/05/21 12:05:46;;;;;;;3.10;1.53;;;14.30;99.90;;;;;;5072792;28;20255;-68
2022/05/21 12:08:36;;;;;;;3.73;1.83;;;14.20;99.90;;;;;;5073494;28;20185;-68
2022/05/21 12:11:05;;;;;;;6.03;2.00;;;14.20;99.90;;;;;;5073503;28;20179;-69
2022/05/21 12:13:38;;;;;;;3.07;1.90;;;14.20;99.90;;;;;;5073073;28;20184;-68
2022/05/21 12:16:24;;;;;;;3.27;2.10;;;14.20;99.90;;;;;;5072772;28;20657;-67
2022/05/21 12:18:54;;;;;;;7.10;2.37;;;14.20;99.90;;;;;;5073572;28;20258;-67
2022/05/21 12:21:40;;;;;;;6.40;2.33;;;14.10;99.90;;;;;;5073577;28;20175;-68
2022/05/21 12:24:35;;;;;;;7.17;1.87;;;14.20;99.90;;;;;;5071705;28;20188;-68
2022/05/21 12:27:11;;;;;;;4.63;1.70;;;14.20;99.90;;;;;;5072985;28;20190;-68
2022/05/21 12:29:46;;;;;;;4.47;1.77;;;14.20;99.90;;;;;;5072645;28;20202;-67
2022/05/21 12:32:23;;;;;;;3.83;1.70;;;14.20;99.90;;;;;;5073273;28;20175;-67
2022/05/21 12:35:24;;;;;;;2.70;1.50;;;14.20;99.90;;;;;;5072813;28;20219;-68
2022/05/21 12:38:16;;;;;;;4.13;2.00;;;14.20;99.90;;;;;;5069908;28;20251;-68
2022/05/21 12:41:10;;;;;;;2.70;1.60;;;14.20;99.90;;;;;;5069976;28;20218;-68
2022/05/21 12:43:49;;;;;;;2.97;1.50;;;14.20;99.90;;;;;;5070614;28;20188;-68
2022/05/21 12:46:33;;;;;;;3.37;1.33;;;14.20;99.90;;;;;;5072827;28;20180;-68
2022/05/21 12:49:04;;;;;;;3.27;1.40;;;14.10;99.90;;;;;;5072840;28;20512;-67
2022/05/21 12:51:42;;;;;;;2.63;1.57;;;14.00;99.90;;;;;;5072802;28;20219;-68
2022/05/21 12:54:25;;;;;;;6.03;1.90;;;14.00;99.90;;;;;;5072504;28;20645;-68
2022/05/21 12:56:55;;;;;;;3.80;2.00;;;14.00;99.90;;;;;;5072964;28;20692;-69
2022/05/21 12:59:30;;;;;;;3.63;1.80;;;14.00;99.90;;;;;;5074636;28;20175;-67
2022/05/21 13:02:20;;;;;;;5.93;2.27;;;13.90;99.90;;;;;;5075796;28;20211;-67
2022/05/21 13:04:49;;;;;;;5.30;1.83;;;13.90;99.90;;;;;;5056430;28;20177;-68
2022/05/21 13:07:35;;;;;;;4.87;1.93;;;13.90;99.90;;;;;;5059998;28;20175;-68
2022/05/21 13:10:21;;;;;;;3.53;1.77;;;13.90;99.90;;;;;;5076391;28;20531;-68
2022/05/21 13:13:16;;;;;;;5.90;1.63;;;13.90;99.90;;;;;;5076246;28;20240;-68
2022/05/21 13:15:56;;;;;;;7.33;2.83;;;13.90;99.90;;;;;;5075896;28;20722;-68
2022/05/21 13:18:47;;;;;;;6.83;2.47;;;13.90;99.90;;;;;;5076410;28;20266;-68
2022/05/21 13:21:46;;;;;;;3.63;1.90;;;13.90;99.90;;;;;;5075007;28;20559;-68
2022/05/21 13:24:34;;;;;;;5.50;3.10;;;13.90;99.90;;;;;;5073085;28;20211;-68
2022/05/21 13:27:26;;;;;;;5.37;2.30;;;13.80;99.90;;;;;;5076325;28;20568;-69
2022/05/21 13:29:55;;;;;;;5.73;2.33;;;13.90;99.90;;;;;;5076005;28;20172;-68
2022/05/21 13:32:25;;;;;;;5.10;2.10;;;13.90;99.90;;;;;;5075967;28;20172;-68
2022/05/21 13:35:05;;;;;;;8.87;2.30;;;13.90;99.90;;;;;;5075927;28;20188;-68
2022/05/21 13:38:12;;;;;;;5.63;2.50;;;13.80;99.90;;;;;;5075766;28;20684;-68
2022/05/21 13:40:55;;;;;;;4.13;2.40;;;13.90;99.90;;;;;;5075856;28;20175;-68
2022/05/21 13:43:36;;;;;;;2.80;2.20;;;13.80;99.90;;;;;;5075849;28;20182;-67
2022/05/21 13:46:04;;;;;;;4.00;2.30;;;13.80;99.90;;;;;;5076005;28;20220;-69
2022/05/21 13:48:48;;;;;;;6.30;2.20;;;13.80;99.90;;;;;;5075834;28;20176;-68